Sorlandet — LDTY — position and weather

sailwx.info

Track history (hours):
 
Tides and Currents Weather Stations Pressure Air Temp Water Temp Dewpoint Dewpoint Depression Visibility Wind Speed Wind Dir Waves Ship Positions

Sorlandet (Norway)

Last reported at 2020-Aug-09 09:30 UTC. Time now 2020-Sep-26 07:32 UTC.
Position N 59°09' E 005°15'.
Warning: this ship's position is 47 days out of date.

Length 64 m; draft 4.5 m.

Type: Sailing vessel. MMSI: 257165000.

Date/timePositionNaut miles runAvg speedWind from/ knotsBaromVisibWave heightAir tempDewpointWater temp
2020-Aug-09 09:30N 59°09' E 005°15'0 0.0
2020-Aug-08 09:29N 59°09' E 005°15'0 0.1
2020-Aug-08 09:01N 59°09' E 005°15'0 0.4
2020-Aug-08 07:59N 59°09' E 005°16'2 0.8
2020-Aug-08 05:01N 59°07' E 005°19'3 2.9
2020-Aug-08 04:01N 59°04' E 005°21'2 3.4
2020-Aug-08 03:30N 59°03' E 005°21'2 3.6
2020-Aug-08 03:00N 59°01' E 005°20'8 4.2
2020-Aug-08 01:00N 58°53' E 005°21'4 4.5
2020-Aug-08 00:00N 58°48' E 005°22'11 5.3
2020-Aug-07 22:00N 58°38' E 005°28'14 5.6
2020-Aug-07 19:30N 58°27' E 005°43'11 5.4
2020-Aug-07 17:30N 58°19' E 005°58'4 4.3
2020-Aug-07 16:30N 58°16' E 006°03'13 5.1
2020-Aug-07 14:01N 58°08' E 006°22'5 5.4
2020-Aug-07 13:00N 58°04' E 006°30'3 5.1
2020-Aug-07 12:31N 58°03' E 006°34'10 5.1
2020-Aug-07 10:31N 57°59' E 006°51'3 5.3
2020-Aug-07 10:01N 57°58' E 006°56'  
2020-Jul-31 12:00N 57°58' E 007°28'6 3.3
2020-Jul-31 10:00N 57°57' E 007°40'15 4.3
2020-Jul-31 06:29N 58°09' E 007°59'0 0.0
2020-Jul-31 05:59N 58°09' E 007°59'0 0.0
2020-Jul-31 04:59N 58°09' E 007°59'0 0.0
2020-Jul-31 03:59N 58°09' E 007°59'0 0.0
2020-Jul-31 00:59N 58°09' E 007°59'0 0.0
2020-Jul-31 00:29N 58°09' E 007°59'0 0.0
2020-Jul-30 22:29N 58°09' E 007°59'0 0.0
2020-Jul-30 21:29N 58°09' E 007°59'0 0.0
2020-Jul-30 20:29N 58°09' E 007°59'0 0.0
2020-Jul-30 19:29N 58°09' E 007°59'0 0.0
2020-Jul-30 13:29N 58°09' E 007°59'0 0.0
2020-Jul-30 10:29N 58°09' E 007°59'  
Track history (hours):
 
Tides and Currents Weather Stations Pressure Air Temp Water Temp Dewpoint Dewpoint Depression Visibility Wind Speed Wind Dir Waves Ship Positions

Sorlandet (Norway)

Last reported at 2020-Aug-09 09:30 UTC. Time now 2020-Sep-26 07:32 UTC.
Position N 59°09' E 005°15'.
Warning: this ship's position is 47 days out of date.

Length 64 m; draft 4.5 m.

Type: Sailing vessel. MMSI: 257165000.

Date/timePositionNaut miles runAvg speedWind from/ knotsBaromVisibWave heightAir tempDewpointWater temp
2020-Aug-09 09:30N 59°09' E 005°15'0 0.0
2020-Aug-08 09:29N 59°09' E 005°15'0 0.1
2020-Aug-08 09:01N 59°09' E 005°15'0 0.4
2020-Aug-08 07:59N 59°09' E 005°16'2 0.8
2020-Aug-08 05:01N 59°07' E 005°19'3 2.9
2020-Aug-08 04:01N 59°04' E 005°21'2 3.4
2020-Aug-08 03:30N 59°03' E 005°21'2 3.6
2020-Aug-08 03:00N 59°01' E 005°20'8 4.2
2020-Aug-08 01:00N 58°53' E 005°21'4 4.5
2020-Aug-08 00:00N 58°48' E 005°22'11 5.3
2020-Aug-07 22:00N 58°38' E 005°28'14 5.6
2020-Aug-07 19:30N 58°27' E 005°43'11 5.4
2020-Aug-07 17:30N 58°19' E 005°58'4 4.3
2020-Aug-07 16:30N 58°16' E 006°03'13 5.1
2020-Aug-07 14:01N 58°08' E 006°22'5 5.4
2020-Aug-07 13:00N 58°04' E 006°30'3 5.1
2020-Aug-07 12:31N 58°03' E 006°34'10 5.1
2020-Aug-07 10:31N 57°59' E 006°51'3 5.3
2020-Aug-07 10:01N 57°58' E 006°56'  
2020-Jul-31 12:00N 57°58' E 007°28'6 3.3
2020-Jul-31 10:00N 57°57' E 007°40'15 4.3
2020-Jul-31 06:29N 58°09' E 007°59'0 0.0
2020-Jul-31 05:59N 58°09' E 007°59'0 0.0
2020-Jul-31 04:59N 58°09' E 007°59'0 0.0
2020-Jul-31 03:59N 58°09' E 007°59'0 0.0
2020-Jul-31 00:59N 58°09' E 007°59'0 0.0
2020-Jul-31 00:29N 58°09' E 007°59'0 0.0
2020-Jul-30 22:29N 58°09' E 007°59'0 0.0
2020-Jul-30 21:29N 58°09' E 007°59'0 0.0
2020-Jul-30 20:29N 58°09' E 007°59'0 0.0
2020-Jul-30 19:29N 58°09' E 007°59'0 0.0
2020-Jul-30 13:29N 58°09' E 007°59'0 0.0
2020-Jul-30 10:29N 58°09' E 007°59'  

Dump ship's entire track history